Time;durP1;ratioP1;P1;durP2;ratioP2;P2;SDS_P1;SDS_P2;PMS_P1;PMS_P2;Temp;Humidity;BMP_temperature;BMP_pressure;BME280_temperature;BME280_humidity;BME280_pressure;Samples;Min_cycle;Max_cycle;Signal;HPM_P1;HPM_P2
2023/02/14 00:00:40;;;;;;;3.30;1.20;;;;;;;;;;4979981;28;20124;-69
2023/02/14 00:03:06;;;;;;;3.43;1.70;;;;;;;;;;4979428;28;20155;-69
2023/02/14 00:05:32;;;;;;;3.90;1.80;;;;;;;;;;4979371;28;20143;-68
2023/02/14 00:07:58;;;;;;;3.73;1.90;;;;;;;;;;4979138;28;20034;-69
2023/02/14 00:10:23;;;;;;;3.03;1.50;;;;;;;;;;4979278;28;20041;-69
2023/02/14 00:12:49;;;;;;;2.40;1.60;;;;;;;;;;4979025;28;20065;-69
2023/02/14 00:15:21;;;;;;;2.73;1.50;;;;;;;;;;4978882;28;20046;-69
2023/02/14 00:17:47;;;;;;;4.83;1.50;;;;;;;;;;4979050;28;20065;-69
2023/02/14 00:20:12;;;;;;;6.03;1.93;;;;;;;;;;4978934;28;20388;-70
2023/02/14 00:22:38;;;;;;;5.20;1.53;;;;;;;;;;4979203;28;20035;-69
2023/02/14 00:25:04;;;;;;;3.80;1.80;;;;;;;;;;4978798;28;20085;-69
2023/02/14 00:27:30;;;;;;;4.70;1.80;;;;;;;;;;4995285;28;20026;-69
2023/02/14 00:30:00;;;;;;;3.37;1.70;;;;;;;;;;4978923;28;20030;-69
2023/02/14 00:32:26;;;;;;;3.65;1.80;;;;;;;;;;4978966;28;20437;-69
2023/02/14 00:34:52;;;;;;;2.33;1.53;;;;;;;;;;4980023;28;20171;-69
2023/02/14 00:37:17;;;;;;;2.87;1.80;;;;;;;;;;4983036;28;20045;-68
2023/02/14 00:39:43;;;;;;;4.77;1.80;;;;;;;;;;4982907;28;20041;-69
2023/02/14 00:42:09;;;;;;;4.47;1.83;;;;;;;;;;4982838;28;20037;-69
2023/02/14 00:44:34;;;;;;;3.83;1.83;;;;;;;;;;4982740;28;20076;-69
2023/02/14 00:47:00;;;;;;;4.67;1.70;;;;;;;;;;4982632;28;20456;-69
2023/02/14 00:49:26;;;;;;;5.53;1.90;;;;;;;;;;4982578;28;20038;-65
2023/02/14 00:51:51;;;;;;;7.87;2.50;;;;;;;;;;4982430;28;20026;-66
2023/02/14 00:54:17;;;;;;;5.07;2.10;;;;;;;;;;4982375;28;20065;-66
2023/02/14 00:56:42;;;;;;;4.83;1.73;;;;;;;;;;4982775;28;20042;-66
2023/02/14 00:59:10;;;;;;;4.00;2.00;;;;;;;;;;4982482;28;20038;-66
2023/02/14 01:01:36;;;;;;;3.87;2.03;;;;;;;;;;4982538;28;20151;-66
2023/02/14 01:04:02;;;;;;;7.40;2.70;;;;;;;;;;4998927;28;20512;-66
2023/02/14 01:06:30;;;;;;;2.33;2.00;;;;;;;;;;4982546;28;20034;-66
2023/02/14 01:08:56;;;;;;;4.53;2.00;;;;;;;;;;4982269;28;20045;-66
2023/02/14 01:11:23;;;;;;;8.87;2.50;;;;;;;;;;4982258;28;20376;-66
2023/02/14 01:13:49;;;;;;;4.70;2.10;;;;;;;;;;4998424;28;20076;-66
2023/02/14 01:16:17;;;;;;;3.50;2.20;;;;;;;;;;4998416;28;20467;-67
2023/02/14 01:18:46;;;;;;;4.53;1.92;;;;;;;;;;4982535;28;20048;-67
2023/02/14 01:21:22;;;;;;;3.23;1.80;;;;;;;;;;4982291;28;20037;-66
2023/02/14 01:23:51;;;;;;;3.93;1.97;;;;;;;;;;4982124;28;20099;-67
2023/02/14 01:26:19;;;;;;;3.40;1.80;;;;;;;;;;4998406;28;20483;-66
2023/02/14 01:28:45;;;;;;;3.40;2.27;;;;;;;;;;4982112;28;20041;-66
2023/02/14 01:31:11;;;;;;;2.97;2.00;;;;;;;;;;4974026;28;20092;-66
2023/02/14 01:33:37;;;;;;;3.97;1.90;;;;;;;;;;4946426;28;20046;-65
2023/02/14 01:36:03;;;;;;;3.20;2.10;;;;;;;;;;4978281;28;20049;-65
2023/02/14 01:38:28;;;;;;;5.67;2.03;;;;;;;;;;4978557;28;20046;-66
2023/02/14 01:40:54;;;;;;;3.17;1.97;;;;;;;;;;4946511;28;20030;-66
2023/02/14 01:43:20;;;;;;;5.53;2.30;;;;;;;;;;4978242;28;20093;-66
2023/02/14 01:45:45;;;;;;;4.20;2.30;;;;;;;;;;4946661;28;20457;-65
2023/02/14 01:48:11;;;;;;;5.83;2.23;;;;;;;;;;4994637;28;20034;-65
2023/02/14 01:50:40;;;;;;;7.60;2.30;;;;;;;;;;4978151;28;20034;-66
2023/02/14 01:53:08;;;;;;;6.17;2.07;;;;;;;;;;4977674;28;20038;-68
2023/02/14 01:55:37;;;;;;;4.57;2.10;;;;;;;;;;4945999;28;20113;-66
2023/02/14 01:58:11;;;;;;;4.10;2.47;;;;;;;;;;4961967;28;20038;-66
2023/02/14 02:00:56;;;;;;;6.60;2.50;;;;;;;;;;4977761;28;20038;-67
2023/02/14 02:03:27;;;;;;;3.10;2.40;;;;;;;;;;4945863;28;20440;-66
2023/02/14 02:05:54;;;;;;;5.07;2.45;;;;;;;;;;4961554;28;20477;-66
2023/02/14 02:08:22;;;;;;;7.00;2.90;;;;;;;;;;4977486;28;20392;-66
2023/02/14 02:10:48;;;;;;;5.97;3.00;;;;;;;;;;4977314;28;20140;-67
2023/02/14 02:13:16;;;;;;;3.93;2.37;;;;;;;;;;4977862;28;20034;-66
2023/02/14 02:15:48;;;;;;;6.50;3.00;;;;;;;;;;4993692;28;20048;-66
2023/02/14 02:18:33;;;;;;;4.43;3.00;;;;;;;;;;4978035;28;20112;-66
2023/02/14 02:21:10;;;;;;;4.27;2.80;;;;;;;;;;4960063;28;20053;-65
2023/02/14 02:23:54;;;;;;;6.93;2.60;;;;;;;;;;4961191;28;20042;-66
2023/02/14 02:26:38;;;;;;;7.87;2.50;;;;;;;;;;4961024;28;20038;-67
2023/02/14 02:29:04;;;;;;;5.37;3.07;;;;;;;;;;4961188;28;20053;-66
2023/02/14 02:31:48;;;;;;;5.67;3.10;;;;;;;;;;4944070;28;20092;-66
2023/02/14 02:34:29;;;;;;;4.90;2.77;;;;;;;;;;4943958;28;20137;-65
2023/02/14 02:36:55;;;;;;;4.88;2.85;;;;;;;;;;4960306;28;20104;-66
2023/02/14 02:39:29;;;;;;;8.23;2.80;;;;;;;;;;4944442;28;20050;-66
2023/02/14 02:42:07;;;;;;;3.63;2.30;;;;;;;;;;4945460;28;20030;-66
2023/02/14 02:44:42;;;;;;;4.37;2.00;;;;;;;;;;4945385;28;20038;-67
2023/02/14 02:47:11;;;;;;;4.63;2.23;;;;;;;;;;4961202;28;20034;-67
2023/02/14 02:53:07;;;;;;;9.13;2.60;;;;;;;;;;4960756;28;20049;-67
2023/02/14 02:58:24;;;;;;;2.67;1.70;;;;;;;;;;4922178;28;20073;-68
2023/02/14 03:00:50;;;;;;;3.37;1.97;;;;;;;;;;4977210;28;20373;-67
2023/02/14 03:06:01;;;;;;;2.93;1.73;;;;;;;;;;4960662;28;20034;-69
2023/02/14 03:08:27;;;;;;;4.70;2.10;;;;;;;;;;4960902;28;20041;-69
2023/02/14 03:10:53;;;;;;;3.93;1.80;;;;;;;;;;4944764;28;20078;-70
2023/02/14 03:13:34;;;;;;;6.57;2.20;;;;;;;;;;4960819;28;20041;-71
2023/02/14 03:16:08;;;;;;;4.17;2.40;;;;;;;;;;4976248;28;20104;-71
2023/02/14 03:21:43;;;;;;;5.07;2.80;;;;;;;;;;4976525;28;20104;-68
2023/02/14 03:24:15;;;;;;;3.07;2.13;;;;;;;;;;4976576;28;20046;-70
2023/02/14 03:26:49;;;;;;;1.90;1.57;;;;;;;;;;4960773;28;20057;-70
2023/02/14 03:29:35;;;;;;;3.23;1.47;;;;;;;;;;4960003;28;20042;-70
2023/02/14 03:32:23;;;;;;;2.70;1.40;;;;;;;;;;4944066;28;20076;-70
2023/02/14 03:34:56;;;;;;;1.40;1.30;;;;;;;;;;4960183;28;20034;-73
2023/02/14 03:37:31;;;;;;;2.87;1.40;;;;;;;;;;4960154;28;20038;-72
2023/02/14 03:40:05;;;;;;;4.83;1.50;;;;;;;;;;4959793;28;20056;-74
2023/02/14 03:42:33;;;;;;;3.00;1.50;;;;;;;;;;4976039;28;20507;-72
2023/02/14 03:45:00;;;;;;;1.80;1.40;;;;;;;;;;4959652;28;20129;-72
2023/02/14 03:47:29;;;;;;;2.40;1.50;;;;;;;;;;4975741;28;20062;-70
2023/02/14 03:49:58;;;;;;;2.17;1.33;;;;;;;;;;4959519;28;20069;-74
2023/02/14 03:52:25;;;;;;;2.97;2.03;;;;;;;;;;4975930;28;20049;-70
2023/02/14 03:54:51;;;;;;;2.40;1.50;;;;;;;;;;4975684;28;20062;-72
2023/02/14 03:57:19;;;;;;;1.33;1.10;;;;;;;;;;4975780;28;20495;-72
2023/02/14 03:59:46;;;;;;;3.27;1.23;;;;;;;;;;4959678;28;20109;-73
2023/02/14 04:02:24;;;;;;;1.83;1.30;;;;;;;;;;4959569;28;20069;-72
2023/02/14 04:04:51;;;;;;;2.60;1.40;;;;;;;;;;4959623;28;20073;-73
2023/02/14 04:07:18;;;;;;;6.20;1.97;;;;;;;;;;4959441;28;20034;-75
2023/02/14 04:09:44;;;;;;;4.27;2.80;;;;;;;;;;4974581;28;20473;-74
2023/02/14 04:12:11;;;;;;;2.60;1.80;;;;;;;;;;4943476;28;20511;-73
2023/02/14 04:14:36;;;;;;;2.37;1.63;;;;;;;;;;5000254;28;20108;-75
2023/02/14 04:19:46;;;;;;;2.47;1.60;;;;;;;;;;4979292;28;20030;-74
2023/02/14 04:22:15;;;;;;;2.53;1.70;;;;;;;;;;4963119;28;20136;-74
2023/02/14 04:24:40;;;;;;;2.07;1.70;;;;;;;;;;4978059;28;20048;-71
2023/02/14 04:27:09;;;;;;;1.67;1.57;;;;;;;;;;4963148;28;20037;-72
2023/02/14 04:29:39;;;;;;;1.60;1.50;;;;;;;;;;4979288;28;20141;-73
2023/02/14 04:32:06;;;;;;;2.83;1.50;;;;;;;;;;4963849;28;20128;-73
2023/02/14 04:34:32;;;;;;;2.40;1.60;;;;;;;;;;4963300;28;20088;-73
2023/02/14 04:36:58;;;;;;;3.60;1.90;;;;;;;;;;4979029;28;20054;-72
2023/02/14 04:39:24;;;;;;;2.00;1.70;;;;;;;;;;4979127;28;20435;-72
2023/02/14 04:41:50;;;;;;;1.37;1.20;;;;;;;;;;4979867;28;20419;-73
2023/02/14 04:44:16;;;;;;;1.30;1.20;;;;;;;;;;4963083;28;20044;-73
2023/02/14 04:46:41;;;;;;;2.37;1.77;;;;;;;;;;4978876;28;20084;-74
2023/02/14 04:49:07;;;;;;;1.73;1.50;;;;;;;;;;4962694;28;20487;-73
2023/02/14 04:51:33;;;;;;;3.27;1.87;;;;;;;;;;4976584;28;20042;-72
2023/02/14 04:53:58;;;;;;;1.50;1.30;;;;;;;;;;4960464;28;20034;-72
2023/02/14 04:56:25;;;;;;;1.90;1.57;;;;;;;;;;4961703;28;20042;-73
2023/02/14 04:58:51;;;;;;;2.80;1.47;;;;;;;;;;4978659;28;20041;-74
2023/02/14 05:01:17;;;;;;;2.43;1.40;;;;;;;;;;4977527;28;20068;-73
2023/02/14 05:03:43;;;;;;;1.43;1.20;;;;;;;;;;4978637;28;20050;-74
2023/02/14 05:06:08;;;;;;;3.83;2.10;;;;;;;;;;4962708;28;20094;-73
2023/02/14 05:08:34;;;;;;;5.00;1.80;;;;;;;;;;4978647;28;20051;-73
2023/02/14 05:10:59;;;;;;;2.77;1.50;;;;;;;;;;4962793;28;20030;-73
2023/02/14 05:13:25;;;;;;;3.80;2.27;;;;;;;;;;4978862;28;20123;-73
2023/02/14 05:15:51;;;;;;;1.90;1.40;;;;;;;;;;4962261;28;20160;-74
2023/02/14 05:18:16;;;;;;;3.97;1.43;;;;;;;;;;4994742;28;20152;-75
2023/02/14 05:20:42;;;;;;;2.90;1.60;;;;;;;;;;4963528;28;20495;-74
2023/02/14 05:23:12;;;;;;;4.57;1.90;;;;;;;;;;4982213;28;20032;-73
2023/02/14 05:25:41;;;;;;;3.60;1.80;;;;;;;;;;4966099;28;20030;-73
2023/02/14 05:28:07;;;;;;;6.90;1.77;;;;;;;;;;4997716;28;20065;-73
2023/02/14 05:30:33;;;;;;;4.70;1.70;;;;;;;;;;4972725;28;20479;-74
2023/02/14 05:32:59;;;;;;;3.93;1.70;;;;;;;;;;4963834;28;20065;-74
2023/02/14 05:35:25;;;;;;;2.53;1.40;;;;;;;;;;4972006;28;20145;-74
2023/02/14 05:37:50;;;;;;;3.17;1.30;;;;;;;;;;4972833;28;20113;-75
2023/02/14 05:40:16;;;;;;;4.07;1.50;;;;;;;;;;4988672;28;20033;-74
2023/02/14 05:42:42;;;;;;;3.93;1.30;;;;;;;;;;4972469;28;20041;-73
2023/02/14 05:45:08;;;;;;;4.73;1.90;;;;;;;;;;4972689;28;20026;-73
2023/02/14 05:47:33;;;;;;;1.83;1.40;;;;;;;;;;4961549;28;20030;-75
2023/02/14 05:49:59;;;;;;;2.70;1.60;;;;;;;;;;4972438;28;20161;-76
2023/02/14 05:52:25;;;;;;;5.63;1.93;;;;;;;;;;4988934;28;20025;-73
2023/02/14 05:54:50;;;;;;;3.80;1.77;;;;;;;;;;4971166;28;20388;-74
2023/02/14 05:57:16;;;;;;;5.03;1.70;;;;;;;;;;4971852;28;20464;-74
2023/02/14 05:59:42;;;;;;;7.30;1.80;;;;;;;;;;4970749;28;20137;-73
2023/02/14 06:02:07;;;;;;;2.23;1.67;;;;;;;;;;4969680;28;20030;-72
2023/02/14 06:04:33;;;;;;;4.37;1.40;;;;;;;;;;4971949;28;20034;-74
2023/02/14 06:06:58;;;;;;;8.33;1.70;;;;;;;;;;4961637;28;20073;-73
2023/02/14 06:09:25;;;;;;;5.20;1.90;;;;;;;;;;4972213;28;20044;-73
2023/02/14 06:11:51;;;;;;;5.43;2.27;;;;;;;;;;4972096;28;20065;-73
2023/02/14 06:14:16;;;;;;;2.70;1.50;;;;;;;;;;4958431;28;20069;-73
2023/02/14 06:16:42;;;;;;;4.80;2.47;;;;;;;;;;4970829;28;20058;-73
2023/02/14 06:19:08;;;;;;;4.93;1.60;;;;;;;;;;4971764;28;20042;-73
2023/02/14 06:21:36;;;;;;;4.53;1.60;;;;;;;;;;4962497;28;20034;-73
2023/02/14 06:24:01;;;;;;;4.90;1.87;;;;;;;;;;4972060;28;20037;-73
2023/02/14 06:26:28;;;;;;;3.07;1.53;;;;;;;;;;4971473;28;20484;-76
2023/02/14 06:28:54;;;;;;;3.40;1.70;;;;;;;;;;4969993;28;20049;-73
2023/02/14 06:31:20;;;;;;;2.97;1.40;;;;;;;;;;4987944;28;20501;-73
2023/02/14 06:33:46;;;;;;;2.70;1.60;;;;;;;;;;4970453;28;20042;-73
2023/02/14 06:36:11;;;;;;;4.47;1.60;;;;;;;;;;4959135;28;20092;-73
2023/02/14 06:38:37;;;;;;;4.27;1.40;;;;;;;;;;4944374;28;20038;-74
2023/02/14 06:41:03;;;;;;;6.38;1.80;;;;;;;;;;4959901;28;20081;-74
2023/02/14 06:43:29;;;;;;;5.50;1.50;;;;;;;;;;4960323;28;20038;-74
2023/02/14 06:45:55;;;;;;;5.57;1.90;;;;;;;;;;4960222;28;20034;-74
2023/02/14 06:48:20;;;;;;;2.57;1.50;;;;;;;;;;4960730;28;20504;-73
2023/02/14 06:50:46;;;;;;;2.17;1.60;;;;;;;;;;4961215;28;20045;-73
2023/02/14 06:53:12;;;;;;;3.70;1.50;;;;;;;;;;4961119;28;20057;-73
2023/02/14 06:55:37;;;;;;;2.20;1.63;;;;;;;;;;4960912;28;20136;-72
2023/02/14 06:58:03;;;;;;;3.20;1.75;;;;;;;;;;4961054;28;20073;-72
2023/02/14 07:00:28;;;;;;;2.67;1.42;;;;;;;;;;4961135;28;20037;-72
2023/02/14 07:02:54;;;;;;;2.65;1.60;;;;;;;;;;4961011;28;20473;-72
2023/02/14 07:05:20;;;;;;;7.38;1.73;;;;;;;;;;4960902;28;20106;-72
2023/02/14 07:07:46;;;;;;;2.65;1.70;;;;;;;;;;4960971;28;20038;-72
2023/02/14 07:10:12;;;;;;;5.88;2.03;;;;;;;;;;4960729;28;20535;-72
2023/02/14 07:12:40;;;;;;;5.55;1.75;;;;;;;;;;4960722;28;20038;-74
2023/02/14 07:15:10;;;;;;;6.93;1.80;;;;;;;;;;4976780;28;20472;-74
2023/02/14 07:17:35;;;;;;;3.65;1.95;;;;;;;;;;4960655;28;20034;-74
2023/02/14 07:20:02;;;;;;;5.10;1.98;;;;;;;;;;4960936;28;20034;-73
2023/02/14 07:22:29;;;;;;;7.82;2.60;;;;;;;;;;4961149;28;20076;-73
2023/02/14 07:24:55;;;;;;;5.97;2.40;;;;;;;;;;4960654;28;20057;-71
2023/02/14 07:27:20;;;;;;;3.78;1.60;;;;;;;;;;4960350;28;20038;-72
2023/02/14 07:29:46;;;;;;;5.15;1.77;;;;;;;;;;4960500;28;20035;-71
2023/02/14 07:32:12;;;;;;;5.90;1.60;;;;;;;;;;4944573;28;20042;-72
2023/02/14 07:34:37;;;;;;;4.28;1.70;;;;;;;;;;4961338;28;20120;-71
2023/02/14 07:37:03;;;;;;;4.88;1.60;;;;;;;;;;4929509;28;20049;-76
2023/02/14 07:39:29;;;;;;;4.15;2.05;;;;;;;;;;4961629;28;20026;-73
2023/02/14 07:41:54;;;;;;;3.63;1.60;;;;;;;;;;4960221;28;20046;-72
2023/02/14 07:44:20;;;;;;;3.20;1.58;;;;;;;;;;4960002;28;20034;-71
2023/02/14 07:46:45;;;;;;;2.78;1.50;;;;;;;;;;4960380;28;20034;-73
2023/02/14 07:49:11;;;;;;;2.30;1.70;;;;;;;;;;4976466;28;20053;-72
2023/02/14 07:51:37;;;;;;;1.60;1.30;;;;;;;;;;4960306;28;20034;-73
2023/02/14 07:54:02;;;;;;;3.25;1.70;;;;;;;;;;4960248;28;20074;-72
2023/02/14 07:56:28;;;;;;;4.22;1.80;;;;;;;;;;4959996;28;20038;-73
2023/02/14 07:58:54;;;;;;;4.00;1.60;;;;;;;;;;4960125;28;20493;-73
2023/02/14 08:01:19;;;;;;;3.22;1.80;;;;;;;;;;4943955;28;20420;-72
2023/02/14 08:03:48;;;;;;;5.57;1.73;;;;;;;;;;4960126;28;20065;-73
2023/02/14 08:06:20;;;;;;;11.55;1.75;;;;;;;;;;4992228;28;20075;-72
2023/02/14 08:08:46;;;;;;;3.85;1.60;;;;;;;;;;4960019;28;20045;-72
2023/02/14 08:12:57;;;;;;;3.95;1.58;;;;;;;;;;4959974;28;20031;-72
2023/02/14 08:13:57;;;;;;;3.80;1.80;;;;;;;;;;4975823;28;20041;-71
2023/02/14 08:16:23;;;;;;;5.10;1.42;;;;;;;;;;4959690;28;20046;-71
2023/02/14 08:18:48;;;;;;;2.75;1.50;;;;;;;;;;4959794;28;20038;-71
2023/02/14 08:21:16;;;;;;;1.63;1.40;;;;;;;;;;4959719;28;20484;-71
2023/02/14 08:23:42;;;;;;;3.95;1.48;;;;;;;;;;4959540;28;20034;-71
2023/02/14 08:26:08;;;;;;;3.95;1.60;;;;;;;;;;4959799;28;20037;-72
2023/02/14 08:28:34;;;;;;;2.75;1.35;;;;;;;;;;4959926;28;20050;-72
2023/02/14 08:31:00;;;;;;;2.53;1.50;;;;;;;;;;4976105;28;20053;-72
2023/02/14 08:33:26;;;;;;;4.45;1.70;;;;;;;;;;4959122;28;20046;-72
2023/02/14 08:35:52;;;;;;;2.17;1.65;;;;;;;;;;4959552;28;20101;-71
2023/02/14 08:38:17;;;;;;;3.85;1.58;;;;;;;;;;4959506;28;20073;-72
2023/02/14 08:40:43;;;;;;;6.25;1.67;;;;;;;;;;4959512;28;20421;-71
2023/02/14 08:43:09;;;;;;;2.97;1.30;;;;;;;;;;4975522;28;20547;-72
2023/02/14 08:45:35;;;;;;;3.05;1.30;;;;;;;;;;4959867;28;20061;-72
2023/02/14 08:48:07;;;;;;;1.98;1.10;;;;;;;;;;4943273;28;20354;-72
2023/02/14 08:50:33;;;;;;;4.15;1.10;;;;;;;;;;4959552;28;20034;-72
2023/02/14 08:52:59;;;;;;;2.80;1.10;;;;;;;;;;4975560;28;20038;-71
2023/02/14 08:55:26;;;;;;;3.00;1.08;;;;;;;;;;4959391;28;20485;-74
2023/02/14 08:57:53;;;;;;;2.65;1.10;;;;;;;;;;4963218;28;20034;-73
2023/02/14 09:00:20;;;;;;;1.80;1.30;;;;;;;;;;4979268;28;20104;-74
2023/02/14 09:02:49;;;;;;;5.00;1.33;;;;;;;;;;4963081;28;20369;-72
2023/02/14 09:05:14;;;;;;;1.98;1.38;;;;;;;;;;4963010;28;20041;-74
2023/02/14 09:07:42;;;;;;;3.25;1.42;;;;;;;;;;4978883;28;20442;-73
2023/02/14 09:10:11;;;;;;;5.80;1.63;;;;;;;;;;4963234;28;20031;-70
2023/02/14 09:12:38;;;;;;;1.52;1.30;;;;;;;;;;4996199;28;20042;-70
2023/02/14 09:15:04;;;;;;;2.45;1.60;;;;;;;;;;4967409;28;20100;-74
2023/02/14 09:17:30;;;;;;;1.83;1.10;;;;;;;;;;4946816;28;20057;-72
2023/02/14 09:19:57;;;;;;;3.53;1.17;;;;;;;;;;4978759;28;20034;-72
2023/02/14 09:22:25;;;;;;;2.03;1.17;;;;;;;;;;4979274;28;20065;-73
2023/02/14 09:24:53;;;;;;;4.38;1.20;;;;;;;;;;4978592;28;20464;-74
2023/02/14 09:27:21;;;;;;;1.10;1.00;;;;;;;;;;4978000;28;20137;-72
2023/02/14 09:29:48;;;;;;;2.17;1.75;;;;;;;;;;4962614;28;20026;-73
2023/02/14 09:32:16;;;;;;;1.30;1.20;;;;;;;;;;4930904;28;20066;-74
2023/02/14 09:37:27;;;;;;;2.03;1.30;;;;;;;;;;4986015;28;20057;-73
2023/02/14 09:39:53;;;;;;;2.60;1.52;;;;;;;;;;4972946;28;20461;-73
2023/02/14 09:42:36;;;;;;;2.25;1.50;;;;;;;;;;4975376;28;20041;-75
2023/02/14 09:45:18;;;;;;;2.53;1.80;;;;;;;;;;5004863;28;20050;-72
2023/02/14 09:47:48;;;;;;;2.13;1.60;;;;;;;;;;4969613;28;20034;-74
2023/02/14 09:50:26;;;;;;;1.55;1.35;;;;;;;;;;4958145;28;20038;-75
2023/02/14 09:52:58;;;;;;;4.65;1.70;;;;;;;;;;4988207;28;20093;-74
2023/02/14 09:55:29;;;;;;;2.08;1.80;;;;;;;;;;4968682;28;20446;-75
2023/02/14 09:58:07;;;;;;;3.45;2.10;;;;;;;;;;4954035;28;20129;-74
2023/02/14 10:00:36;;;;;;;4.90;2.28;;;;;;;;;;4988299;28;20057;-72
2023/02/14 10:03:25;;;;;;;3.88;1.50;;;;;;;;;;4985255;28;20042;-73
2023/02/14 10:06:02;;;;;;;8.95;1.77;;;;;;;;;;4962361;28;20436;-74
2023/02/14 10:08:32;;;;;;;4.45;2.13;;;;;;;;;;4990893;28;20428;-75
2023/02/14 10:11:12;;;;;;;2.88;1.92;;;;;;;;;;4961073;28;20030;-76
2023/02/14 10:13:52;;;;;;;3.13;1.73;;;;;;;;;;4981626;28;20050;-75
2023/02/14 10:16:24;;;;;;;3.60;1.60;;;;;;;;;;4945874;28;20047;-74
2023/02/14 10:18:58;;;;;;;2.90;1.60;;;;;;;;;;4961821;28;20034;-75
2023/02/14 10:21:27;;;;;;;6.07;1.88;;;;;;;;;;4977388;28;20397;-75
2023/02/14 10:23:56;;;;;;;2.28;1.70;;;;;;;;;;4977736;28;20050;-74
2023/02/14 10:26:32;;;;;;;3.20;2.00;;;;;;;;;;4961449;28;20137;-74
2023/02/14 10:28:57;;;;;;;4.32;2.40;;;;;;;;;;4961193;28;20046;-74
2023/02/14 10:31:32;;;;;;;4.30;1.85;;;;;;;;;;4992553;28;20061;-76
2023/02/14 10:34:19;;;;;;;3.78;1.80;;;;;;;;;;4961523;28;20030;-74
2023/02/14 10:36:59;;;;;;;4.47;1.90;;;;;;;;;;4961193;28;20568;-74
2023/02/14 10:39:44;;;;;;;1.77;1.40;;;;;;;;;;4977261;28;20489;-74
2023/02/14 10:42:21;;;;;;;3.58;1.67;;;;;;;;;;4994418;28;20034;-78
2023/02/14 10:44:47;;;;;;;2.08;1.50;;;;;;;;;;4976164;28;20037;-74
2023/02/14 10:47:31;;;;;;;7.18;1.90;;;;;;;;;;4954564;28;20097;-77
2023/02/14 10:50:17;;;;;;;7.55;1.70;;;;;;;;;;4978481;28;20053;-78
2023/02/14 10:52:58;;;;;;;4.25;1.80;;;;;;;;;;4985714;28;20077;-77
2023/02/14 10:55:33;;;;;;;2.50;1.92;;;;;;;;;;4967602;28;20065;-78
2023/02/14 10:58:02;;;;;;;4.68;1.92;;;;;;;;;;4967154;28;20461;-75
2023/02/14 11:00:35;;;;;;;4.10;1.80;;;;;;;;;;4982035;28;20470;-76
2023/02/14 11:03:04;;;;;;;6.10;1.80;;;;;;;;;;4966872;28;20041;-79
2023/02/14 11:05:41;;;;;;;4.03;2.05;;;;;;;;;;4966220;28;20043;-79
2023/02/14 11:08:18;;;;;;;7.15;1.65;;;;;;;;;;4995808;28;20034;-80
2023/02/14 11:10:46;;;;;;;2.92;1.60;;;;;;;;;;4984092;28;20132;-76
2023/02/14 11:13:30;;;;;;;3.17;1.45;;;;;;;;;;4975177;28;20045;-80
2023/02/14 11:15:58;;;;;;;2.83;1.70;;;;;;;;;;4966906;28;20107;-80
2023/02/14 11:18:30;;;;;;;5.10;1.70;;;;;;;;;;4982915;28;20527;-81
2023/02/14 11:21:06;;;;;;;2.75;1.55;;;;;;;;;;4973180;28;20033;-80
2023/02/14 11:23:33;;;;;;;6.22;1.88;;;;;;;;;;4958642;28;20031;-82
2023/02/14 11:26:01;;;;;;;4.50;1.50;;;;;;;;;;4936491;28;20064;-78
2023/02/14 11:28:27;;;;;;;2.85;1.60;;;;;;;;;;4986743;28;20121;-79
2023/02/14 11:30:54;;;;;;;3.50;1.60;;;;;;;;;;4971761;28;20057;-81
2023/02/14 11:33:37;;;;;;;4.10;1.60;;;;;;;;;;4987935;28;20761;-80
2023/02/14 11:36:05;;;;;;;2.65;1.60;;;;;;;;;;4950437;28;20046;-79
2023/02/14 11:38:37;;;;;;;5.47;1.70;;;;;;;;;;4949538;28;20501;-79
2023/02/14 11:41:12;;;;;;;2.78;1.70;;;;;;;;;;4966105;28;20132;-78
2023/02/14 11:43:42;;;;;;;4.40;1.75;;;;;;;;;;4958806;28;20030;-78
2023/02/14 11:46:23;;;;;;;2.92;1.70;;;;;;;;;;4955985;28;20042;-75
2023/02/14 11:48:55;;;;;;;3.35;1.77;;;;;;;;;;4981106;28;20030;-76
2023/02/14 11:51:25;;;;;;;4.65;1.60;;;;;;;;;;4968656;28;20044;-74
2023/02/14 11:53:55;;;;;;;4.65;1.42;;;;;;;;;;4965074;28;20034;-77
2023/02/14 11:56:21;;;;;;;3.97;1.60;;;;;;;;;;4971623;28;20084;-76
2023/02/14 11:58:49;;;;;;;2.05;1.50;;;;;;;;;;4973311;28;20046;-75
2023/02/14 12:01:24;;;;;;;2.17;1.35;;;;;;;;;;4976551;28;20048;-78
2023/02/14 12:03:51;;;;;;;3.38;1.30;;;;;;;;;;5007030;23;20034;-75
2023/02/14 12:06:29;;;;;;;1.77;1.30;;;;;;;;;;4970478;28;20100;-77
2023/02/14 12:12:14;;;;;;;2.47;1.50;;;;;;;;;;5341300;23;20027;-81
2023/02/14 12:14:40;;;;;;;1.75;1.38;;;;;;;;;;4869722;29;20036;-80
2023/02/14 12:17:06;;;;;;;1.73;1.60;;;;;;;;;;4904880;29;20052;-79
2023/02/14 12:19:35;;;;;;;3.33;1.50;;;;;;;;;;4887779;29;20494;-79
2023/02/14 12:22:05;;;;;;;2.60;1.30;;;;;;;;;;4870773;29;20032;-78
2023/02/14 12:24:33;;;;;;;2.20;1.25;;;;;;;;;;4870054;29;20062;-79
2023/02/14 12:27:05;;;;;;;2.72;1.30;;;;;;;;;;4887173;29;20483;-82
2023/02/14 12:29:40;;;;;;;3.92;2.20;;;;;;;;;;4866066;29;21094;-81
2023/02/14 12:32:21;;;;;;;6.63;1.80;;;;;;;;;;4879623;29;20040;-79
2023/02/14 12:34:50;;;;;;;2.78;1.40;;;;;;;;;;4860934;29;20056;-76
2023/02/14 12:37:20;;;;;;;3.33;1.70;;;;;;;;;;4865764;29;20044;-76
2023/02/14 12:39:50;;;;;;;2.23;1.30;;;;;;;;;;4863108;29;20059;-79
2023/02/14 12:42:31;;;;;;;2.90;1.40;;;;;;;;;;4880749;29;20041;-78
2023/02/14 12:44:57;;;;;;;2.42;1.20;;;;;;;;;;4922693;24;20328;-83
2023/02/14 12:47:44;;;;;;;1.80;1.20;;;;;;;;;;4884714;29;20039;-81
2023/02/14 12:50:20;;;;;;;2.47;1.42;;;;;;;;;;4877986;29;20127;-76
2023/02/14 12:52:49;;;;;;;1.50;1.40;;;;;;;;;;4889925;29;20067;-84
2023/02/14 12:55:15;;;;;;;2.63;1.50;;;;;;;;;;4871111;29;20043;-78
2023/02/14 12:57:46;;;;;;;1.98;1.50;;;;;;;;;;4863217;29;20131;-77
2023/02/14 13:00:28;;;;;;;4.18;1.45;;;;;;;;;;4863617;29;20045;-75
2023/02/14 13:03:00;;;;;;;2.50;1.70;;;;;;;;;;4862850;29;20832;-77
2023/02/14 13:06:02;;;;;;;2.83;1.67;;;;;;;;;;4868460;29;20131;-75
2023/02/14 13:08:27;;;;;;;;;;;;;;;;;;4779284;29;20026;-81
2023/02/14 13:11:12;;;;;;;2.00;1.42;;;;;;;;;;4850532;29;19916;-77
2023/02/14 13:13:45;;;;;;;4.57;1.73;;;;;;;;;;4835715;29;20052;-77
2023/02/14 13:16:31;;;;;;;8.93;2.30;;;;;;;;;;4855192;29;20052;-77
2023/02/14 13:19:06;;;;;;;2.58;1.70;;;;;;;;;;4836989;29;20045;-78
2023/02/14 13:21:34;;;;;;;2.40;1.55;;;;;;;;;;4851228;29;20072;-82
2023/02/14 13:24:05;;;;;;;3.72;2.08;;;;;;;;;;4853831;29;20037;-81
2023/02/14 13:26:30;;;;;;;;;;;;;;;;;;4846731;29;20037;-78
2023/02/14 13:29:08;;;;;;;6.32;2.05;;;;;;;;;;4844154;29;19916;-77
2023/02/14 13:31:34;;;;;;;3.30;1.77;;;;;;;;;;4847754;29;20040;-80
2023/02/14 13:34:26;;;;;;;4.07;2.00;;;;;;;;;;4846466;29;20068;-79
2023/02/14 13:36:53;;;;;;;4.53;2.10;;;;;;;;;;4798133;29;20098;-78
2023/02/14 13:39:25;;;;;;;2.78;1.80;;;;;;;;;;4841605;29;20045;-78
2023/02/14 13:41:52;;;;;;;7.22;2.13;;;;;;;;;;4844920;29;20338;-81
2023/02/14 13:44:37;;;;;;;2.30;1.70;;;;;;;;;;4833738;29;20058;-80
2023/02/14 13:47:03;;;;;;;2.67;1.80;;;;;;;;;;4849268;29;20059;-77
2023/02/14 13:49:38;;;;;;;2.50;1.87;;;;;;;;;;4847973;29;20041;-77
2023/02/14 13:52:05;;;;;;;3.15;1.77;;;;;;;;;;4863337;29;20060;-78
2023/02/14 13:54:32;;;;;;;4.70;1.90;;;;;;;;;;4833850;29;20041;-75
2023/02/14 13:56:58;;;;;;;5.40;2.27;;;;;;;;;;4849244;29;20396;-81
2023/02/14 13:59:33;;;;;;;2.90;1.70;;;;;;;;;;4857272;29;20069;-77
2023/02/14 14:02:18;;;;;;;6.37;1.90;;;;;;;;;;4832816;29;20041;-78
2023/02/14 14:04:44;;;;;;;3.07;1.90;;;;;;;;;;4848547;29;20127;-75
2023/02/14 14:07:15;;;;;;;2.37;1.40;;;;;;;;;;4848403;29;20059;-73
2023/02/14 14:09:40;;;;;;;2.83;1.73;;;;;;;;;;4833270;29;20468;-75
2023/02/14 14:12:25;;;;;;;5.83;1.90;;;;;;;;;;4845684;29;20041;-78
2023/02/14 14:15:06;;;;;;;5.00;2.10;;;;;;;;;;4841802;29;20041;-81
2023/02/14 14:17:34;;;;;;;5.17;1.67;;;;;;;;;;4840444;29;20041;-79
2023/02/14 14:20:03;;;;;;;2.90;1.60;;;;;;;;;;4834165;29;20056;-79
2023/02/14 14:22:29;;;;;;;2.10;1.67;;;;;;;;;;4833588;29;20419;-77
2023/02/14 14:24:57;;;;;;;2.73;1.93;;;;;;;;;;4849429;29;20180;-77
2023/02/14 14:27:29;;;;;;;4.50;1.90;;;;;;;;;;4831705;29;20029;-77
2023/02/14 14:29:57;;;;;;;2.60;1.50;;;;;;;;;;4852244;29;20408;-80
2023/02/14 14:32:25;;;;;;;2.40;1.50;;;;;;;;;;4859547;29;20136;-76
2023/02/14 14:34:56;;;;;;;3.73;1.83;;;;;;;;;;4847722;29;20055;-77
2023/02/14 14:37:23;;;;;;;2.50;1.60;;;;;;;;;;4879811;29;20048;-78
2023/02/14 14:39:50;;;;;;;2.70;1.60;;;;;;;;;;4856770;29;20041;-75
2023/02/14 14:42:17;;;;;;;1.57;1.30;;;;;;;;;;4850934;29;20557;-74
2023/02/14 14:45:00;;;;;;;1.97;1.50;;;;;;;;;;4863299;29;20064;-75
2023/02/14 14:47:57;;;;;;;6.43;1.83;;;;;;;;;;4854238;29;20388;-78
2023/02/14 14:50:25;;;;;;;3.43;1.70;;;;;;;;;;4845455;29;20081;-77
2023/02/14 14:53:15;;;;;;;2.93;1.80;;;;;;;;;;4852051;29;20033;-76
2023/02/14 14:55:44;;;;;;;4.13;1.70;;;;;;;;;;4833095;29;20052;-76
2023/02/14 14:58:29;;;;;;;3.43;1.80;;;;;;;;;;4866851;29;20125;-76
2023/02/14 15:00:55;;;;;;;2.30;1.53;;;;;;;;;;4851198;29;20115;-76
2023/02/14 15:03:22;;;;;;;4.57;1.70;;;;;;;;;;4851862;29;20033;-75
2023/02/14 15:05:49;;;;;;;3.30;1.50;;;;;;;;;;4837748;29;20025;-77
2023/02/14 15:08:16;;;;;;;2.30;1.50;;;;;;;;;;4869852;29;20139;-78
2023/02/14 15:10:47;;;;;;;4.13;1.50;;;;;;;;;;4835568;29;20595;-74
2023/02/14 15:15:59;;;;;;;1.83;1.60;;;;;;;;;;4854633;29;20044;-76
2023/02/14 15:18:24;;;;;;;6.87;1.70;;;;;;;;;;4852967;29;20036;-74
2023/02/14 15:20:50;;;;;;;2.10;1.50;;;;;;;;;;4838389;29;20071;-74